sensor_id;sensor_type;location;lat;lon;timestamp;P1;durP1;ratioP1;P2;durP2;ratioP2
2462;SDS011;1243;54.298;10.172;2022-07-31T00:00:36;15.33;;;12.47;;
2462;SDS011;1243;54.298;10.172;2022-07-31T00:03:02;17.43;;;13.97;;
2462;SDS011;1243;54.298;10.172;2022-07-31T00:05:27;15.60;;;12.73;;
2462;SDS011;1243;54.298;10.172;2022-07-31T00:07:55;17.50;;;12.33;;
2462;SDS011;1243;54.298;10.172;2022-07-31T00:10:21;13.23;;;11.03;;
2462;SDS011;1243;54.298;10.172;2022-07-31T00:12:47;18.90;;;14.17;;
2462;SDS011;1243;54.298;10.172;2022-07-31T00:15:13;22.33;;;13.90;;
2462;SDS011;1243;54.298;10.172;2022-07-31T00:17:39;23.30;;;13.93;;
2462;SDS011;1243;54.298;10.172;2022-07-31T00:20:06;19.90;;;13.13;;
2462;SDS011;1243;54.298;10.172;2022-07-31T00:22:32;21.67;;;14.50;;
2462;SDS011;1243;54.298;10.172;2022-07-31T00:24:59;18.03;;;13.80;;
2462;SDS011;1243;54.298;10.172;2022-07-31T00:27:25;18.53;;;13.97;;
2462;SDS011;1243;54.298;10.172;2022-07-31T00:29:51;15.87;;;13.87;;
2462;SDS011;1243;54.298;10.172;2022-07-31T00:32:16;23.43;;;15.20;;
2462;SDS011;1243;54.298;10.172;2022-07-31T00:34:42;17.00;;;13.97;;
2462;SDS011;1243;54.298;10.172;2022-07-31T00:37:08;18.43;;;13.63;;
2462;SDS011;1243;54.298;10.172;2022-07-31T00:39:34;15.50;;;12.80;;
2462;SDS011;1243;54.298;10.172;2022-07-31T00:42:00;16.10;;;13.80;;
2462;SDS011;1243;54.298;10.172;2022-07-31T00:44:26;20.03;;;15.33;;
2462;SDS011;1243;54.298;10.172;2022-07-31T00:46:52;18.77;;;14.80;;
2462;SDS011;1243;54.298;10.172;2022-07-31T00:49:19;21.07;;;14.27;;
2462;SDS011;1243;54.298;10.172;2022-07-31T00:51:44;21.70;;;15.30;;
2462;SDS011;1243;54.298;10.172;2022-07-31T00:54:11;21.40;;;16.60;;
2462;SDS011;1243;54.298;10.172;2022-07-31T00:56:36;26.87;;;16.17;;
2462;SDS011;1243;54.298;10.172;2022-07-31T00:59:02;24.97;;;16.00;;
2462;SDS011;1243;54.298;10.172;2022-07-31T01:01:28;20.87;;;15.17;;
2462;SDS011;1243;54.298;10.172;2022-07-31T01:03:55;24.00;;;17.40;;
2462;SDS011;1243;54.298;10.172;2022-07-31T01:06:21;18.43;;;15.10;;
2462;SDS011;1243;54.298;10.172;2022-07-31T01:08:47;29.70;;;17.70;;
2462;SDS011;1243;54.298;10.172;2022-07-31T01:11:56;23.67;;;15.50;;
2462;SDS011;1243;54.298;10.172;2022-07-31T01:14:08;24.17;;;17.47;;
2462;SDS011;1243;54.298;10.172;2022-07-31T01:16:35;25.00;;;17.83;;
2462;SDS011;1243;54.298;10.172;2022-07-31T01:19:09;23.87;;;16.70;;
2462;SDS011;1243;54.298;10.172;2022-07-31T01:21:44;21.30;;;16.40;;
2462;SDS011;1243;54.298;10.172;2022-07-31T01:27:00;21.90;;;16.83;;
2462;SDS011;1243;54.298;10.172;2022-07-31T01:29:40;21.13;;;15.43;;
2462;SDS011;1243;54.298;10.172;2022-07-31T01:32:13;18.67;;;15.73;;
2462;SDS011;1243;54.298;10.172;2022-07-31T01:34:47;24.37;;;16.13;;
2462;SDS011;1243;54.298;10.172;2022-07-31T01:37:26;22.03;;;17.07;;
2462;SDS011;1243;54.298;10.172;2022-07-31T01:40:00;18.33;;;14.10;;
2462;SDS011;1243;54.298;10.172;2022-07-31T01:42:29;20.03;;;14.40;;
2462;SDS011;1243;54.298;10.172;2022-07-31T01:44:59;20.07;;;15.90;;
2462;SDS011;1243;54.298;10.172;2022-07-31T01:47:26;20.83;;;14.70;;
2462;SDS011;1243;54.298;10.172;2022-07-31T01:49:53;18.87;;;15.30;;
2462;SDS011;1243;54.298;10.172;2022-07-31T01:52:20;20.50;;;14.90;;
2462;SDS011;1243;54.298;10.172;2022-07-31T01:54:48;23.13;;;15.77;;
2462;SDS011;1243;54.298;10.172;2022-07-31T01:57:15;18.87;;;14.63;;
2462;SDS011;1243;54.298;10.172;2022-07-31T01:59:42;18.80;;;14.80;;
2462;SDS011;1243;54.298;10.172;2022-07-31T02:02:10;20.87;;;17.07;;
2462;SDS011;1243;54.298;10.172;2022-07-31T02:04:36;19.77;;;16.00;;
2462;SDS011;1243;54.298;10.172;2022-07-31T02:07:03;21.57;;;15.20;;
2462;SDS011;1243;54.298;10.172;2022-07-31T02:09:30;18.90;;;14.03;;
2462;SDS011;1243;54.298;10.172;2022-07-31T02:11:57;21.10;;;15.07;;
2462;SDS011;1243;54.298;10.172;2022-07-31T02:14:24;18.77;;;14.30;;
2462;SDS011;1243;54.298;10.172;2022-07-31T02:16:52;19.03;;;13.33;;
2462;SDS011;1243;54.298;10.172;2022-07-31T02:19:18;20.67;;;14.20;;
2462;SDS011;1243;54.298;10.172;2022-07-31T02:21:46;20.60;;;14.60;;
2462;SDS011;1243;54.298;10.172;2022-07-31T02:24:11;19.40;;;15.33;;
2462;SDS011;1243;54.298;10.172;2022-07-31T02:26:38;17.87;;;15.50;;
2462;SDS011;1243;54.298;10.172;2022-07-31T02:29:05;19.47;;;14.63;;
2462;SDS011;1243;54.298;10.172;2022-07-31T02:31:33;18.03;;;13.93;;
2462;SDS011;1243;54.298;10.172;2022-07-31T02:34:00;25.13;;;13.90;;
2462;SDS011;1243;54.298;10.172;2022-07-31T02:36:26;19.47;;;16.00;;
2462;SDS011;1243;54.298;10.172;2022-07-31T02:38:57;24.60;;;17.60;;
2462;SDS011;1243;54.298;10.172;2022-07-31T02:41:23;20.60;;;14.00;;
2462;SDS011;1243;54.298;10.172;2022-07-31T02:43:49;14.80;;;12.50;;
2462;SDS011;1243;54.298;10.172;2022-07-31T02:46:16;15.83;;;14.13;;
2462;SDS011;1243;54.298;10.172;2022-07-31T02:48:42;18.37;;;14.07;;
2462;SDS011;1243;54.298;10.172;2022-07-31T02:51:09;22.93;;;14.50;;
2462;SDS011;1243;54.298;10.172;2022-07-31T02:53:35;19.40;;;13.17;;
2462;SDS011;1243;54.298;10.172;2022-07-31T02:56:04;20.27;;;15.37;;
2462;SDS011;1243;54.298;10.172;2022-07-31T02:58:30;20.10;;;14.30;;
2462;SDS011;1243;54.298;10.172;2022-07-31T03:00:56;18.30;;;12.87;;
2462;SDS011;1243;54.298;10.172;2022-07-31T03:03:28;16.10;;;14.13;;
2462;SDS011;1243;54.298;10.172;2022-07-31T03:05:53;20.93;;;15.60;;
2462;SDS011;1243;54.298;10.172;2022-07-31T03:08:19;16.00;;;13.17;;
2462;SDS011;1243;54.298;10.172;2022-07-31T03:10:45;18.60;;;15.13;;
2462;SDS011;1243;54.298;10.172;2022-07-31T03:13:11;20.87;;;14.83;;
2462;SDS011;1243;54.298;10.172;2022-07-31T03:15:38;21.00;;;14.43;;
2462;SDS011;1243;54.298;10.172;2022-07-31T03:18:05;15.80;;;13.53;;
2462;SDS011;1243;54.298;10.172;2022-07-31T03:20:35;19.23;;;14.27;;
2462;SDS011;1243;54.298;10.172;2022-07-31T03:23:03;17.03;;;12.10;;
2462;SDS011;1243;54.298;10.172;2022-07-31T03:25:30;21.30;;;14.47;;
2462;SDS011;1243;54.298;10.172;2022-07-31T03:27:57;14.97;;;13.13;;
2462;SDS011;1243;54.298;10.172;2022-07-31T03:30:24;22.90;;;13.40;;
2462;SDS011;1243;54.298;10.172;2022-07-31T03:32:53;20.73;;;13.40;;
2462;SDS011;1243;54.298;10.172;2022-07-31T03:35:20;19.13;;;12.83;;
2462;SDS011;1243;54.298;10.172;2022-07-31T03:37:46;14.47;;;12.27;;
2462;SDS011;1243;54.298;10.172;2022-07-31T03:40:12;22.30;;;13.40;;
2462;SDS011;1243;54.298;10.172;2022-07-31T03:42:38;20.37;;;12.50;;
2462;SDS011;1243;54.298;10.172;2022-07-31T03:45:04;16.00;;;12.20;;
2462;SDS011;1243;54.298;10.172;2022-07-31T03:47:33;17.70;;;13.73;;
2462;SDS011;1243;54.298;10.172;2022-07-31T03:49:59;15.57;;;12.30;;
2462;SDS011;1243;54.298;10.172;2022-07-31T03:52:28;15.73;;;13.67;;
2462;SDS011;1243;54.298;10.172;2022-07-31T03:54:55;16.40;;;11.67;;
2462;SDS011;1243;54.298;10.172;2022-07-31T03:57:20;21.03;;;14.70;;
2462;SDS011;1243;54.298;10.172;2022-07-31T03:59:48;19.33;;;13.80;;
2462;SDS011;1243;54.298;10.172;2022-07-31T04:02:29;19.20;;;15.97;;
2462;SDS011;1243;54.298;10.172;2022-07-31T04:04:55;19.70;;;13.40;;
2462;SDS011;1243;54.298;10.172;2022-07-31T04:07:21;16.50;;;12.40;;
2462;SDS011;1243;54.298;10.172;2022-07-31T04:09:48;19.13;;;13.10;;
2462;SDS011;1243;54.298;10.172;2022-07-31T04:12:14;21.23;;;13.90;;
2462;SDS011;1243;54.298;10.172;2022-07-31T04:14:39;18.67;;;15.30;;
2462;SDS011;1243;54.298;10.172;2022-07-31T04:17:05;21.17;;;15.00;;
2462;SDS011;1243;54.298;10.172;2022-07-31T04:19:31;18.23;;;13.90;;
2462;SDS011;1243;54.298;10.172;2022-07-31T04:21:57;20.27;;;13.97;;
2462;SDS011;1243;54.298;10.172;2022-07-31T04:24:23;19.20;;;13.10;;
2462;SDS011;1243;54.298;10.172;2022-07-31T04:26:50;20.93;;;15.17;;
2462;SDS011;1243;54.298;10.172;2022-07-31T04:29:18;23.67;;;16.00;;
2462;SDS011;1243;54.298;10.172;2022-07-31T04:31:44;27.03;;;15.73;;
2462;SDS011;1243;54.298;10.172;2022-07-31T04:34:10;27.30;;;16.83;;
2462;SDS011;1243;54.298;10.172;2022-07-31T04:36:35;18.20;;;14.90;;
2462;SDS011;1243;54.298;10.172;2022-07-31T04:39:02;22.20;;;15.03;;
2462;SDS011;1243;54.298;10.172;2022-07-31T04:41:28;19.20;;;13.83;;
2462;SDS011;1243;54.298;10.172;2022-07-31T04:43:54;22.83;;;15.10;;
2462;SDS011;1243;54.298;10.172;2022-07-31T04:46:21;17.67;;;14.10;;
2462;SDS011;1243;54.298;10.172;2022-07-31T04:48:48;24.37;;;15.70;;
2462;SDS011;1243;54.298;10.172;2022-07-31T04:51:20;28.10;;;16.23;;
2462;SDS011;1243;54.298;10.172;2022-07-31T04:53:47;22.10;;;15.60;;
2462;SDS011;1243;54.298;10.172;2022-07-31T04:56:14;20.60;;;15.03;;
2462;SDS011;1243;54.298;10.172;2022-07-31T04:59:00;18.03;;;14.00;;
2462;SDS011;1243;54.298;10.172;2022-07-31T05:01:30;22.83;;;14.90;;
2462;SDS011;1243;54.298;10.172;2022-07-31T05:03:56;22.17;;;15.30;;
2462;SDS011;1243;54.298;10.172;2022-07-31T05:06:22;22.20;;;15.20;;
2462;SDS011;1243;54.298;10.172;2022-07-31T05:08:57;17.87;;;15.33;;
2462;SDS011;1243;54.298;10.172;2022-07-31T05:11:23;20.50;;;15.90;;
2462;SDS011;1243;54.298;10.172;2022-07-31T05:13:49;19.87;;;14.50;;
2462;SDS011;1243;54.298;10.172;2022-07-31T05:16:21;19.77;;;16.43;;
2462;SDS011;1243;54.298;10.172;2022-07-31T05:18:49;22.07;;;16.80;;
2462;SDS011;1243;54.298;10.172;2022-07-31T05:21:18;18.60;;;15.73;;
2462;SDS011;1243;54.298;10.172;2022-07-31T05:23:44;18.83;;;15.13;;
2462;SDS011;1243;54.298;10.172;2022-07-31T05:26:11;18.97;;;15.03;;
2462;SDS011;1243;54.298;10.172;2022-07-31T05:28:38;23.57;;;16.97;;
2462;SDS011;1243;54.298;10.172;2022-07-31T05:31:04;20.50;;;16.70;;
2462;SDS011;1243;54.298;10.172;2022-07-31T05:33:30;19.90;;;15.47;;
2462;SDS011;1243;54.298;10.172;2022-07-31T05:35:56;20.60;;;14.73;;
2462;SDS011;1243;54.298;10.172;2022-07-31T05:38:22;17.70;;;14.57;;
2462;SDS011;1243;54.298;10.172;2022-07-31T05:40:49;24.03;;;16.03;;
2462;SDS011;1243;54.298;10.172;2022-07-31T05:43:14;19.47;;;14.67;;
2462;SDS011;1243;54.298;10.172;2022-07-31T05:45:40;25.10;;;15.83;;
2462;SDS011;1243;54.298;10.172;2022-07-31T05:48:06;16.30;;;13.03;;
2462;SDS011;1243;54.298;10.172;2022-07-31T05:50:31;18.30;;;13.93;;
2462;SDS011;1243;54.298;10.172;2022-07-31T05:53:00;18.57;;;13.77;;
2462;SDS011;1243;54.298;10.172;2022-07-31T05:55:26;18.00;;;12.80;;
2462;SDS011;1243;54.298;10.172;2022-07-31T05:57:51;19.97;;;13.47;;
2462;SDS011;1243;54.298;10.172;2022-07-31T06:00:17;17.17;;;12.50;;
2462;SDS011;1243;54.298;10.172;2022-07-31T06:02:45;16.97;;;12.30;;
2462;SDS011;1243;54.298;10.172;2022-07-31T06:05:10;13.03;;;11.67;;
2462;SDS011;1243;54.298;10.172;2022-07-31T06:07:36;18.40;;;12.57;;
2462;SDS011;1243;54.298;10.172;2022-07-31T06:10:02;15.53;;;12.50;;
2462;SDS011;1243;54.298;10.172;2022-07-31T06:12:29;16.80;;;11.07;;
2462;SDS011;1243;54.298;10.172;2022-07-31T06:14:55;12.20;;;10.80;;
2462;SDS011;1243;54.298;10.172;2022-07-31T06:17:20;13.10;;;10.40;;
2462;SDS011;1243;54.298;10.172;2022-07-31T06:19:46;10.20;;;9.07;;
2462;SDS011;1243;54.298;10.172;2022-07-31T06:22:12;13.43;;;9.80;;
2462;SDS011;1243;54.298;10.172;2022-07-31T06:24:37;14.27;;;8.97;;
2462;SDS011;1243;54.298;10.172;2022-07-31T06:27:03;14.70;;;9.57;;
2462;SDS011;1243;54.298;10.172;2022-07-31T06:29:30;13.07;;;9.50;;
2462;SDS011;1243;54.298;10.172;2022-07-31T06:31:56;11.50;;;10.40;;
2462;SDS011;1243;54.298;10.172;2022-07-31T06:34:22;12.37;;;9.70;;
2462;SDS011;1243;54.298;10.172;2022-07-31T06:36:48;16.53;;;8.07;;
2462;SDS011;1243;54.298;10.172;2022-07-31T06:39:15;10.80;;;8.13;;
2462;SDS011;1243;54.298;10.172;2022-07-31T06:41:41;10.83;;;7.90;;
2462;SDS011;1243;54.298;10.172;2022-07-31T06:44:16;9.60;;;7.67;;
2462;SDS011;1243;54.298;10.172;2022-07-31T06:46:44;8.40;;;6.93;;
2462;SDS011;1243;54.298;10.172;2022-07-31T06:49:10;14.33;;;7.90;;
2462;SDS011;1243;54.298;10.172;2022-07-31T06:51:36;7.93;;;6.77;;
2462;SDS011;1243;54.298;10.172;2022-07-31T06:54:02;9.70;;;7.63;;
2462;SDS011;1243;54.298;10.172;2022-07-31T06:56:29;7.83;;;7.03;;
2462;SDS011;1243;54.298;10.172;2022-07-31T06:58:56;13.27;;;6.57;;
2462;SDS011;1243;54.298;10.172;2022-07-31T07:01:21;8.90;;;6.07;;
2462;SDS011;1243;54.298;10.172;2022-07-31T07:03:47;8.60;;;4.90;;
2462;SDS011;1243;54.298;10.172;2022-07-31T07:06:13;4.67;;;4.27;;
2462;SDS011;1243;54.298;10.172;2022-07-31T07:09:32;4.43;;;3.27;;
2462;SDS011;1243;54.298;10.172;2022-07-31T07:11:58;4.27;;;3.87;;
2462;SDS011;1243;54.298;10.172;2022-07-31T07:14:24;5.70;;;5.20;;
2462;SDS011;1243;54.298;10.172;2022-07-31T07:16:49;5.60;;;4.13;;
2462;SDS011;1243;54.298;10.172;2022-07-31T07:19:15;6.70;;;3.60;;
2462;SDS011;1243;54.298;10.172;2022-07-31T07:21:41;3.63;;;2.73;;
2462;SDS011;1243;54.298;10.172;2022-07-31T07:24:07;6.53;;;2.70;;
2462;SDS011;1243;54.298;10.172;2022-07-31T07:26:32;2.50;;;2.30;;
2462;SDS011;1243;54.298;10.172;2022-07-31T07:28:58;2.83;;;2.33;;
2462;SDS011;1243;54.298;10.172;2022-07-31T07:31:24;2.90;;;2.20;;
2462;SDS011;1243;54.298;10.172;2022-07-31T07:33:50;3.43;;;2.67;;
2462;SDS011;1243;54.298;10.172;2022-07-31T07:36:16;5.20;;;2.50;;
2462;SDS011;1243;54.298;10.172;2022-07-31T07:38:41;4.30;;;2.03;;
2462;SDS011;1243;54.298;10.172;2022-07-31T07:41:07;2.80;;;2.60;;
2462;SDS011;1243;54.298;10.172;2022-07-31T07:43:33;2.93;;;2.23;;
2462;SDS011;1243;54.298;10.172;2022-07-31T07:45:58;2.27;;;2.07;;
2462;SDS011;1243;54.298;10.172;2022-07-31T07:48:24;2.70;;;2.60;;
2462;SDS011;1243;54.298;10.172;2022-07-31T07:50:50;2.10;;;2.00;;
2462;SDS011;1243;54.298;10.172;2022-07-31T07:53:15;2.23;;;2.03;;
2462;SDS011;1243;54.298;10.172;2022-07-31T07:55:41;5.47;;;2.33;;
2462;SDS011;1243;54.298;10.172;2022-07-31T07:58:07;1.90;;;1.80;;
2462;SDS011;1243;54.298;10.172;2022-07-31T08:00:33;6.10;;;1.90;;
2462;SDS011;1243;54.298;10.172;2022-07-31T08:02:58;1.77;;;1.67;;
2462;SDS011;1243;54.298;10.172;2022-07-31T08:05:24;2.90;;;1.93;;
2462;SDS011;1243;54.298;10.172;2022-07-31T08:07:50;6.43;;;1.90;;
2462;SDS011;1243;54.298;10.172;2022-07-31T08:10:15;4.07;;;2.00;;
2462;SDS011;1243;54.298;10.172;2022-07-31T08:12:43;2.03;;;1.70;;
2462;SDS011;1243;54.298;10.172;2022-07-31T08:15:10;1.80;;;1.57;;
2462;SDS011;1243;54.298;10.172;2022-07-31T08:17:36;3.73;;;2.13;;
2462;SDS011;1243;54.298;10.172;2022-07-31T08:20:02;2.70;;;2.27;;
2462;SDS011;1243;54.298;10.172;2022-07-31T08:22:28;3.67;;;1.90;;
2462;SDS011;1243;54.298;10.172;2022-07-31T08:24:54;4.40;;;2.20;;
2462;SDS011;1243;54.298;10.172;2022-07-31T08:27:21;3.73;;;1.90;;
2462;SDS011;1243;54.298;10.172;2022-07-31T08:29:53;2.43;;;1.77;;
2462;SDS011;1243;54.298;10.172;2022-07-31T08:32:21;2.80;;;2.60;;
2462;SDS011;1243;54.298;10.172;2022-07-31T08:34:47;2.10;;;2.00;;
2462;SDS011;1243;54.298;10.172;2022-07-31T08:37:13;2.93;;;2.53;;
2462;SDS011;1243;54.298;10.172;2022-07-31T08:39:43;4.70;;;2.60;;
2462;SDS011;1243;54.298;10.172;2022-07-31T08:42:10;3.20;;;2.93;;
2462;SDS011;1243;54.298;10.172;2022-07-31T08:44:37;2.80;;;2.60;;
2462;SDS011;1243;54.298;10.172;2022-07-31T08:47:07;9.33;;;2.70;;
2462;SDS011;1243;54.298;10.172;2022-07-31T08:49:35;2.47;;;2.27;;
2462;SDS011;1243;54.298;10.172;2022-07-31T08:52:04;3.00;;;2.80;;
2462;SDS011;1243;54.298;10.172;2022-07-31T08:54:31;2.70;;;2.40;;
2462;SDS011;1243;54.298;10.172;2022-07-31T08:56:59;3.90;;;2.80;;
2462;SDS011;1243;54.298;10.172;2022-07-31T08:59:26;2.63;;;2.33;;
2462;SDS011;1243;54.298;10.172;2022-07-31T09:01:52;4.23;;;2.90;;
2462;SDS011;1243;54.298;10.172;2022-07-31T09:04:21;7.30;;;4.27;;
2462;SDS011;1243;54.298;10.172;2022-07-31T09:06:47;3.73;;;3.33;;
2462;SDS011;1243;54.298;10.172;2022-07-31T09:09:14;3.77;;;2.80;;
2462;SDS011;1243;54.298;10.172;2022-07-31T09:11:48;3.70;;;2.60;;
2462;SDS011;1243;54.298;10.172;2022-07-31T09:14:24;3.40;;;2.93;;
2462;SDS011;1243;54.298;10.172;2022-07-31T09:16:50;3.17;;;2.97;;
2462;SDS011;1243;54.298;10.172;2022-07-31T09:19:16;11.10;;;3.63;;
2462;SDS011;1243;54.298;10.172;2022-07-31T09:21:42;4.33;;;2.70;;
2462;SDS011;1243;54.298;10.172;2022-07-31T09:24:10;3.23;;;3.03;;
2462;SDS011;1243;54.298;10.172;2022-07-31T09:26:38;3.20;;;3.00;;
2462;SDS011;1243;54.298;10.172;2022-07-31T09:29:07;7.00;;;3.13;;
2462;SDS011;1243;54.298;10.172;2022-07-31T09:31:35;4.03;;;2.70;;
2462;SDS011;1243;54.298;10.172;2022-07-31T09:34:02;4.37;;;2.83;;
2462;SDS011;1243;54.298;10.172;2022-07-31T09:36:28;2.93;;;2.73;;
2462;SDS011;1243;54.298;10.172;2022-07-31T09:38:55;3.03;;;2.83;;
2462;SDS011;1243;54.298;10.172;2022-07-31T09:41:21;3.57;;;2.87;;
2462;SDS011;1243;54.298;10.172;2022-07-31T09:43:54;3.30;;;3.10;;
2462;SDS011;1243;54.298;10.172;2022-07-31T09:46:21;8.83;;;3.80;;
2462;SDS011;1243;54.298;10.172;2022-07-31T09:48:50;2.60;;;2.37;;
2462;SDS011;1243;54.298;10.172;2022-07-31T09:51:20;4.23;;;2.67;;
2462;SDS011;1243;54.298;10.172;2022-07-31T09:53:47;2.60;;;2.37;;
2462;SDS011;1243;54.298;10.172;2022-07-31T09:56:38;3.13;;;2.67;;
2462;SDS011;1243;54.298;10.172;2022-07-31T09:59:03;2.63;;;2.30;;
2462;SDS011;1243;54.298;10.172;2022-07-31T10:01:30;2.90;;;2.70;;
2462;SDS011;1243;54.298;10.172;2022-07-31T10:04:00;3.93;;;3.07;;
2462;SDS011;1243;54.298;10.172;2022-07-31T10:06:27;3.00;;;2.80;;
2462;SDS011;1243;54.298;10.172;2022-07-31T10:08:58;2.10;;;2.00;;
2462;SDS011;1243;54.298;10.172;2022-07-31T10:11:26;2.37;;;2.00;;
2462;SDS011;1243;54.298;10.172;2022-07-31T10:13:55;3.87;;;3.50;;
2462;SDS011;1243;54.298;10.172;2022-07-31T10:16:24;2.83;;;2.60;;
2462;SDS011;1243;54.298;10.172;2022-07-31T10:18:54;2.80;;;2.50;;
2462;SDS011;1243;54.298;10.172;2022-07-31T10:21:23;4.13;;;2.63;;
2462;SDS011;1243;54.298;10.172;2022-07-31T10:23:56;3.93;;;2.80;;
2462;SDS011;1243;54.298;10.172;2022-07-31T10:26:24;3.17;;;2.87;;
2462;SDS011;1243;54.298;10.172;2022-07-31T10:28:50;4.30;;;3.30;;
2462;SDS011;1243;54.298;10.172;2022-07-31T10:31:16;4.00;;;2.80;;
2462;SDS011;1243;54.298;10.172;2022-07-31T10:33:42;4.40;;;2.87;;
2462;SDS011;1243;54.298;10.172;2022-07-31T10:36:15;2.60;;;2.40;;
2462;SDS011;1243;54.298;10.172;2022-07-31T10:38:59;2.80;;;2.60;;
2462;SDS011;1243;54.298;10.172;2022-07-31T10:47:21;2.60;;;2.50;;
2462;SDS011;1243;54.298;10.172;2022-07-31T10:49:47;2.57;;;2.37;;
2462;SDS011;1243;54.298;10.172;2022-07-31T10:52:14;2.53;;;2.30;;
2462;SDS011;1243;54.298;10.172;2022-07-31T10:54:56;4.57;;;2.33;;
2462;SDS011;1243;54.298;10.172;2022-07-31T10:57:29;4.60;;;2.40;;
2462;SDS011;1243;54.298;10.172;2022-07-31T11:00:06;2.80;;;2.43;;
2462;SDS011;1243;54.298;10.172;2022-07-31T11:02:36;3.03;;;2.70;;
2462;SDS011;1243;54.298;10.172;2022-07-31T11:05:35;3.50;;;2.70;;
2462;SDS011;1243;54.298;10.172;2022-07-31T11:08:00;4.17;;;2.70;;
2462;SDS011;1243;54.298;10.172;2022-07-31T11:10:27;3.33;;;2.70;;
2462;SDS011;1243;54.298;10.172;2022-07-31T11:13:03;2.90;;;2.50;;
2462;SDS011;1243;54.298;10.172;2022-07-31T11:15:35;3.10;;;2.50;;
2462;SDS011;1243;54.298;10.172;2022-07-31T11:18:16;5.40;;;2.23;;
2462;SDS011;1243;54.298;10.172;2022-07-31T11:20:43;5.30;;;2.00;;
2462;SDS011;1243;54.298;10.172;2022-07-31T11:23:26;1.97;;;1.87;;
2462;SDS011;1243;54.298;10.172;2022-07-31T11:25:57;3.93;;;2.40;;
2462;SDS011;1243;54.298;10.172;2022-07-31T11:28:24;4.13;;;2.17;;
2462;SDS011;1243;54.298;10.172;2022-07-31T11:33:26;2.20;;;1.90;;
2462;SDS011;1243;54.298;10.172;2022-07-31T11:35:53;2.40;;;2.20;;
2462;SDS011;1243;54.298;10.172;2022-07-31T11:38:19;5.43;;;2.07;;
2462;SDS011;1243;54.298;10.172;2022-07-31T11:40:51;3.00;;;2.70;;
2462;SDS011;1243;54.298;10.172;2022-07-31T11:43:17;2.40;;;2.20;;
2462;SDS011;1243;54.298;10.172;2022-07-31T11:45:46;2.73;;;1.80;;
2462;SDS011;1243;54.298;10.172;2022-07-31T11:48:14;2.73;;;2.43;;
2462;SDS011;1243;54.298;10.172;2022-07-31T11:50:41;2.90;;;2.23;;
2462;SDS011;1243;54.298;10.172;2022-07-31T11:53:07;2.40;;;2.30;;
2462;SDS011;1243;54.298;10.172;2022-07-31T11:58:17;4.43;;;2.23;;
2462;SDS011;1243;54.298;10.172;2022-07-31T12:00:47;3.00;;;2.40;;
2462;SDS011;1243;54.298;10.172;2022-07-31T12:03:23;3.47;;;2.00;;
2462;SDS011;1243;54.298;10.172;2022-07-31T12:06:02;1.87;;;1.77;;
2462;SDS011;1243;54.298;10.172;2022-07-31T12:08:29;2.90;;;2.60;;
2462;SDS011;1243;54.298;10.172;2022-07-31T12:10:55;3.13;;;1.97;;
2462;SDS011;1243;54.298;10.172;2022-07-31T12:13:23;2.37;;;2.00;;
2462;SDS011;1243;54.298;10.172;2022-07-31T12:18:21;5.57;;;3.03;;
2462;SDS011;1243;54.298;10.172;2022-07-31T12:20:54;6.20;;;2.33;;
2462;SDS011;1243;54.298;10.172;2022-07-31T12:23:21;5.80;;;2.20;;
2462;SDS011;1243;54.298;10.172;2022-07-31T12:25:47;2.70;;;2.30;;
2462;SDS011;1243;54.298;10.172;2022-07-31T12:28:13;2.50;;;2.30;;
2462;SDS011;1243;54.298;10.172;2022-07-31T12:30:39;2.80;;;2.43;;
2462;SDS011;1243;54.298;10.172;2022-07-31T12:33:07;3.90;;;2.40;;
2462;SDS011;1243;54.298;10.172;2022-07-31T12:35:42;2.50;;;2.30;;
2462;SDS011;1243;54.298;10.172;2022-07-31T12:38:08;2.97;;;2.37;;
2462;SDS011;1243;54.298;10.172;2022-07-31T12:40:34;5.40;;;2.60;;
2462;SDS011;1243;54.298;10.172;2022-07-31T12:43:00;2.80;;;2.00;;
2462;SDS011;1243;54.298;10.172;2022-07-31T12:45:33;2.33;;;2.13;;
2462;SDS011;1243;54.298;10.172;2022-07-31T12:48:00;2.90;;;2.70;;
2462;SDS011;1243;54.298;10.172;2022-07-31T12:50:27;3.17;;;2.60;;
2462;SDS011;1243;54.298;10.172;2022-07-31T12:52:55;3.20;;;2.70;;
2462;SDS011;1243;54.298;10.172;2022-07-31T12:55:23;3.00;;;2.20;;
2462;SDS011;1243;54.298;10.172;2022-07-31T12:57:49;3.97;;;2.00;;
2462;SDS011;1243;54.298;10.172;2022-07-31T13:00:15;3.67;;;2.33;;
2462;SDS011;1243;54.298;10.172;2022-07-31T13:02:42;5.20;;;2.37;;
2462;SDS011;1243;54.298;10.172;2022-07-31T13:05:08;5.70;;;1.80;;
2462;SDS011;1243;54.298;10.172;2022-07-31T13:07:34;2.90;;;2.60;;
2462;SDS011;1243;54.298;10.172;2022-07-31T13:10:00;5.17;;;2.33;;
2462;SDS011;1243;54.298;10.172;2022-07-31T13:12:26;2.40;;;2.20;;
2462;SDS011;1243;54.298;10.172;2022-07-31T13:14:51;2.63;;;2.43;;
2462;SDS011;1243;54.298;10.172;2022-07-31T13:17:17;2.10;;;2.00;;
2462;SDS011;1243;54.298;10.172;2022-07-31T13:19:43;2.63;;;2.43;;
2462;SDS011;1243;54.298;10.172;2022-07-31T13:22:08;2.87;;;2.60;;
2462;SDS011;1243;54.298;10.172;2022-07-31T13:24:34;2.90;;;2.60;;
2462;SDS011;1243;54.298;10.172;2022-07-31T13:27:00;2.63;;;2.40;;
2462;SDS011;1243;54.298;10.172;2022-07-31T13:29:26;3.50;;;2.60;;
2462;SDS011;1243;54.298;10.172;2022-07-31T13:31:51;3.87;;;2.77;;
2462;SDS011;1243;54.298;10.172;2022-07-31T13:34:17;3.13;;;2.70;;
2462;SDS011;1243;54.298;10.172;2022-07-31T13:36:43;2.53;;;2.33;;
2462;SDS011;1243;54.298;10.172;2022-07-31T13:39:09;2.87;;;2.67;;
2462;SDS011;1243;54.298;10.172;2022-07-31T13:41:35;3.27;;;2.90;;
2462;SDS011;1243;54.298;10.172;2022-07-31T13:44:02;2.63;;;2.33;;
2462;SDS011;1243;54.298;10.172;2022-07-31T13:46:28;4.50;;;2.40;;
2462;SDS011;1243;54.298;10.172;2022-07-31T13:48:55;3.20;;;2.50;;
2462;SDS011;1243;54.298;10.172;2022-07-31T13:51:23;8.20;;;3.23;;
2462;SDS011;1243;54.298;10.172;2022-07-31T13:53:48;5.63;;;2.57;;
2462;SDS011;1243;54.298;10.172;2022-07-31T13:56:15;2.07;;;1.97;;
2462;SDS011;1243;54.298;10.172;2022-07-31T13:58:41;4.40;;;2.43;;
2462;SDS011;1243;54.298;10.172;2022-07-31T14:01:07;4.27;;;2.20;;
2462;SDS011;1243;54.298;10.172;2022-07-31T14:03:33;3.40;;;2.50;;
2462;SDS011;1243;54.298;10.172;2022-07-31T14:05:59;6.70;;;2.70;;
2462;SDS011;1243;54.298;10.172;2022-07-31T14:08:24;2.83;;;2.50;;
2462;SDS011;1243;54.298;10.172;2022-07-31T14:10:50;2.63;;;2.13;;
2462;SDS011;1243;54.298;10.172;2022-07-31T14:13:17;2.83;;;2.60;;
2462;SDS011;1243;54.298;10.172;2022-07-31T14:15:43;3.97;;;2.30;;
2462;SDS011;1243;54.298;10.172;2022-07-31T14:18:10;2.67;;;2.50;;
2462;SDS011;1243;54.298;10.172;2022-07-31T14:20:36;3.17;;;2.90;;
2462;SDS011;1243;54.298;10.172;2022-07-31T14:23:02;3.20;;;2.47;;
2462;SDS011;1243;54.298;10.172;2022-07-31T14:25:29;2.70;;;2.50;;
2462;SDS011;1243;54.298;10.172;2022-07-31T14:27:56;2.43;;;2.23;;
2462;SDS011;1243;54.298;10.172;2022-07-31T14:30:22;2.73;;;2.30;;
2462;SDS011;1243;54.298;10.172;2022-07-31T14:32:48;5.60;;;2.80;;
2462;SDS011;1243;54.298;10.172;2022-07-31T14:35:14;3.90;;;2.40;;
2462;SDS011;1243;54.298;10.172;2022-07-31T14:37:40;3.00;;;2.80;;
2462;SDS011;1243;54.298;10.172;2022-07-31T14:40:06;2.90;;;2.70;;
2462;SDS011;1243;54.298;10.172;2022-07-31T14:42:32;2.50;;;2.33;;
2462;SDS011;1243;54.298;10.172;2022-07-31T14:44:58;3.10;;;2.90;;
2462;SDS011;1243;54.298;10.172;2022-07-31T14:47:26;3.20;;;2.43;;
2462;SDS011;1243;54.298;10.172;2022-07-31T14:49:52;3.23;;;2.50;;
2462;SDS011;1243;54.298;10.172;2022-07-31T14:52:18;3.27;;;2.40;;
2462;SDS011;1243;54.298;10.172;2022-07-31T14:54:44;4.63;;;4.23;;
2462;SDS011;1243;54.298;10.172;2022-07-31T14:57:09;3.97;;;3.67;;
2462;SDS011;1243;54.298;10.172;2022-07-31T14:59:35;2.53;;;2.43;;
2462;SDS011;1243;54.298;10.172;2022-07-31T15:02:01;3.60;;;3.07;;
2462;SDS011;1243;54.298;10.172;2022-07-31T15:04:26;2.87;;;2.67;;
2462;SDS011;1243;54.298;10.172;2022-07-31T15:06:52;3.30;;;2.60;;
2462;SDS011;1243;54.298;10.172;2022-07-31T15:09:18;3.10;;;2.80;;